createdAt,value
2023-02-19T00:01:52.228Z,101523.47
2023-02-19T00:04:22.089Z,101516.47
2023-02-19T00:06:50.180Z,101517.31
2023-02-19T00:09:18.214Z,101518.16
2023-02-19T00:11:46.911Z,101515.56
2023-02-19T00:14:19.702Z,101521.63
2023-02-19T00:16:47.248Z,101509.59
2023-02-19T00:19:18.760Z,101511.41
2023-02-19T00:21:45.937Z,101515.69
2023-02-19T00:24:14.421Z,101507.91
2023-02-19T00:26:42.414Z,101513.94
2023-02-19T00:29:13.162Z,101508.84
2023-02-19T00:31:40.461Z,101500.28
2023-02-19T00:34:07.185Z,101499.59
2023-02-19T00:36:36.706Z,101487.41
2023-02-19T00:39:04.658Z,101483.91
2023-02-19T00:41:31.250Z,101496.94
2023-02-19T00:44:03.172Z,101497.97
2023-02-19T00:46:32.267Z,101495.41
2023-02-19T00:48:59.411Z,101490.22
2023-02-19T00:51:29.352Z,101485.78
2023-02-19T00:53:56.031Z,101487.50
2023-02-19T00:56:23.229Z,101490.09
2023-02-19T00:58:50.493Z,101493.50
2023-02-19T01:01:17.845Z,101490.06
2023-02-19T01:03:44.950Z,101493.56
2023-02-19T01:06:13.713Z,101484.03
2023-02-19T01:08:40.311Z,101490.09
2023-02-19T01:11:09.588Z,101487.50
2023-02-19T01:13:37.330Z,101492.59
2023-02-19T01:16:16.125Z,101487.41
2023-02-19T01:18:43.822Z,101489.09
2023-02-19T01:21:17.919Z,101484.81
2023-02-19T01:23:44.682Z,101488.31
2023-02-19T01:26:17.582Z,101487.47
2023-02-19T01:28:44.744Z,101482.19
2023-02-19T01:31:17.817Z,101483.91
2023-02-19T01:33:47.020Z,101496.16
2023-02-19T01:36:14.240Z,101492.72
2023-02-19T01:38:41.261Z,101483.19
2023-02-19T01:41:10.326Z,101490.09
2023-02-19T01:44:13.986Z,101485.78
2023-02-19T01:46:42.804Z,101491.06
2023-02-19T01:49:19.128Z,101491.06
2023-02-19T01:51:49.353Z,101487.63
2023-02-19T01:54:19.571Z,101496.25
2023-02-19T01:56:49.176Z,101491.06
2023-02-19T01:59:17.451Z,101498.06
2023-02-19T02:01:44.999Z,101485.09
2023-02-19T02:04:13.965Z,101497.22
2023-02-19T02:07:02.195Z,101489.50
2023-02-19T02:09:49.158Z,101497.22
2023-02-19T02:12:15.883Z,101505.00
2023-02-19T02:14:45.699Z,101503.16
2023-02-19T02:17:15.091Z,101506.63
2023-02-19T02:20:00.099Z,101502.31
2023-02-19T02:22:43.442Z,101505.69
2023-02-19T02:25:16.352Z,101498.81
2023-02-19T02:28:07.272Z,101504.84
2023-02-19T02:31:12.159Z,101499.66
2023-02-19T02:34:06.673Z,101502.25
2023-02-19T02:36:40.400Z,101500.66
2023-02-19T02:39:11.822Z,101499.75
2023-02-19T02:41:44.046Z,101497.06
2023-02-19T02:44:10.832Z,101498.75
2023-02-19T02:46:42.520Z,101494.56
2023-02-19T02:49:21.362Z,101496.25
2023-02-19T02:51:52.198Z,101502.31
2023-02-19T02:54:41.959Z,101500.66
2023-02-19T02:57:15.171Z,101500.59
2023-02-19T02:59:43.077Z,101510.13
2023-02-19T03:02:19.248Z,101508.34
2023-02-19T03:05:07.623Z,101498.75
2023-02-19T03:07:41.774Z,101504.91
2023-02-19T03:10:13.577Z,101516.06
2023-02-19T03:12:59.524Z,101514.38
2023-02-19T03:15:51.291Z,101509.19
2023-02-19T03:18:38.109Z,101517.88
2023-02-19T03:21:07.409Z,101519.66
2023-02-19T03:23:54.593Z,101524.84
2023-02-19T03:26:21.834Z,101523.16
2023-02-19T03:29:10.412Z,101533.47
2023-02-19T03:31:41.286Z,101536.09
2023-02-19T03:34:11.915Z,101534.44
2023-02-19T03:36:46.134Z,101536.13
2023-02-19T03:39:17.546Z,101544.75
2023-02-19T03:42:10.276Z,101543.13
2023-02-19T03:44:48.884Z,101545.66
2023-02-19T03:47:33.201Z,101541.34
2023-02-19T03:50:20.267Z,101548.19
2023-02-19T03:52:53.813Z,101550.78
2023-02-19T03:55:44.213Z,101547.34
2023-02-19T03:58:27.985Z,101551.56
2023-02-19T04:01:08.567Z,101560.22
2023-02-19T04:03:48.604Z,101563.81
2023-02-19T04:06:23.058Z,101563.03
2023-02-19T04:08:54.697Z,101567.28
2023-02-19T04:11:23.392Z,101577.66
2023-02-19T04:13:58.674Z,101576.03
2023-02-19T04:16:28.816Z,101581.25
2023-02-19T04:19:00.367Z,101593.25
2023-02-19T04:21:30.393Z,101594.84
2023-02-19T04:24:00.811Z,101587.03
2023-02-19T04:26:28.551Z,101598.25
2023-02-19T04:28:55.154Z,101606.94
2023-02-19T04:31:23.159Z,101605.50
2023-02-19T04:33:49.722Z,101608.19
2023-02-19T04:36:18.723Z,101608.13
2023-02-19T04:38:45.469Z,101616.00
2023-02-19T04:41:12.500Z,101620.19
2023-02-19T04:43:39.245Z,101615.84
2023-02-19T04:46:05.840Z,101622.09
2023-02-19T04:48:32.440Z,101628.13
2023-02-19T04:50:58.955Z,101622.09
2023-02-19T04:53:25.489Z,101621.19
2023-02-19T04:55:53.513Z,101622.91
2023-02-19T04:58:20.744Z,101631.44
2023-02-19T05:00:51.053Z,101632.38
2023-02-19T05:03:17.581Z,101637.63
2023-02-19T05:05:44.073Z,101631.44
2023-02-19T05:08:10.598Z,101638.56
2023-02-19T05:10:37.172Z,101637.00
2023-02-19T05:13:03.704Z,101641.34
2023-02-19T05:15:30.525Z,101653.31
2023-02-19T05:17:57.107Z,101650.69
2023-02-19T05:20:23.709Z,101661.91
2023-02-19T05:22:50.271Z,101664.50
2023-02-19T05:25:16.987Z,101659.31
2023-02-19T05:27:43.952Z,101662.75
2023-02-19T05:30:11.460Z,101673.97
2023-02-19T05:32:38.603Z,101668.84
2023-02-19T05:35:05.529Z,101670.53
2023-02-19T05:37:32.472Z,101679.91
2023-02-19T05:39:58.967Z,101687.72
2023-02-19T05:42:25.581Z,101686.16
2023-02-19T05:44:52.082Z,101689.69
2023-02-19T05:47:18.596Z,101691.47
2023-02-19T05:49:45.109Z,101690.63
2023-02-19T05:52:11.656Z,101688.91
2023-02-19T05:54:38.195Z,101685.53
2023-02-19T05:57:04.828Z,101691.56
2023-02-19T05:59:31.684Z,101697.72
2023-02-19T06:01:58.498Z,101693.34
2023-02-19T06:04:25.149Z,101688.16
2023-02-19T06:06:51.669Z,101701.13
2023-02-19T06:09:18.230Z,101701.13
2023-02-19T06:11:44.971Z,101694.19
2023-02-19T06:14:13.991Z,101699.47
2023-02-19T06:16:41.126Z,101704.72
2023-02-19T06:19:07.667Z,101704.75
2023-02-19T06:21:36.654Z,101705.59
2023-02-19T06:24:08.304Z,101708.31
2023-02-19T06:26:36.487Z,101716.91
2023-02-19T06:29:03.460Z,101727.38
2023-02-19T06:31:32.243Z,101724.06
2023-02-19T06:33:58.830Z,101727.50
2023-02-19T06:36:25.579Z,101734.38
2023-02-19T06:38:52.156Z,101731.84
2023-02-19T06:41:26.522Z,101734.38
2023-02-19T06:43:53.112Z,101738.75
2023-02-19T06:46:21.070Z,101739.63
2023-02-19T06:48:47.715Z,101742.13
2023-02-19T06:51:18.805Z,101748.13
2023-02-19T06:53:46.280Z,101758.41
2023-02-19T06:56:30.792Z,101766.19
2023-02-19T06:59:00.591Z,101763.63
2023-02-19T07:01:28.923Z,101778.25
2023-02-19T07:03:58.347Z,101792.13
2023-02-19T07:06:26.958Z,101782.63
2023-02-19T07:08:56.475Z,101780.00
2023-02-19T07:11:26.580Z,101799.03
2023-02-19T07:13:57.264Z,101798.19
2023-02-19T07:16:24.501Z,101799.88
2023-02-19T07:18:56.394Z,101805.94
2023-02-19T07:21:23.204Z,101813.09
2023-02-19T07:23:50.096Z,101813.09
2023-02-19T07:26:19.207Z,101816.53
2023-02-19T07:28:48.676Z,101825.94
2023-02-19T07:31:20.283Z,101832.94
2023-02-19T07:33:47.988Z,101832.88
2023-02-19T07:36:17.551Z,101843.28
2023-02-19T07:38:44.937Z,101848.38
2023-02-19T07:41:12.134Z,101844.03
2023-02-19T07:43:40.112Z,101855.16
2023-02-19T07:46:09.294Z,101860.38
2023-02-19T07:48:36.917Z,101863.75
2023-02-19T07:51:05.796Z,101867.22
2023-02-19T07:53:34.820Z,101868.13
2023-02-19T07:56:03.151Z,101857.75
2023-02-19T07:58:30.500Z,101863.91
2023-02-19T08:00:57.821Z,101871.53
2023-02-19T08:03:24.467Z,101881.09
2023-02-19T08:05:54.206Z,101880.19
2023-02-19T08:08:21.105Z,101893.06
2023-02-19T08:11:05.990Z,101895.56
2023-02-19T08:13:33.301Z,101891.19
2023-02-19T08:16:20.146Z,101895.47
2023-02-19T08:18:51.248Z,101895.44
2023-02-19T08:21:21.132Z,101898.00
2023-02-19T08:23:50.628Z,101897.94
2023-02-19T08:26:18.196Z,101900.47
2023-02-19T08:28:45.016Z,101909.16
2023-02-19T08:31:13.272Z,101906.56
2023-02-19T08:33:40.466Z,101902.97
2023-02-19T08:36:09.431Z,101904.69
2023-02-19T08:38:37.889Z,101903.72
2023-02-19T08:41:10.625Z,101904.56
2023-02-19T08:43:37.861Z,101910.56
2023-02-19T08:46:06.234Z,101913.97
2023-02-19T08:48:33.253Z,101918.31
2023-02-19T08:51:05.621Z,101921.66
2023-02-19T08:53:33.196Z,101922.72
2023-02-19T08:56:11.866Z,101921.72
2023-02-19T08:58:39.098Z,101931.25
2023-02-19T09:01:14.417Z,101922.44
2023-02-19T09:03:41.616Z,101918.06
2023-02-19T09:06:11.294Z,101928.34
2023-02-19T09:08:38.374Z,101932.56
2023-02-19T09:11:07.075Z,101946.44
2023-02-19T09:13:33.602Z,101943.81
2023-02-19T09:16:00.133Z,101948.94
2023-02-19T09:18:27.646Z,101955.16
2023-02-19T09:20:54.141Z,101963.06
2023-02-19T09:23:20.905Z,101959.59
2023-02-19T09:25:47.510Z,101966.56
2023-02-19T09:28:14.100Z,101978.56
2023-02-19T09:30:40.624Z,101977.06
2023-02-19T09:33:07.838Z,101980.34
2023-02-19T09:35:34.334Z,101979.34
2023-02-19T09:38:02.090Z,101978.44
2023-02-19T09:40:30.387Z,101970.66
2023-02-19T09:42:57.754Z,101970.69
2023-02-19T09:45:28.055Z,101975.19
2023-02-19T09:47:59.894Z,101982.13
2023-02-19T09:50:36.137Z,101981.41
2023-02-19T09:53:08.728Z,101999.81
2023-02-19T09:55:43.494Z,101994.81
2023-02-19T09:58:22.423Z,102001.66
2023-02-19T10:00:50.877Z,102016.19
2023-02-19T10:03:25.606Z,102027.09
2023-02-19T10:05:53.306Z,102023.50
2023-02-19T10:08:21.644Z,102034.63
2023-02-19T10:10:48.214Z,102038.22
2023-02-19T10:13:24.274Z,102047.78
2023-02-19T10:15:54.390Z,102052.19
2023-02-19T10:18:24.719Z,102048.66
2023-02-19T10:20:53.720Z,102037.53
2023-02-19T10:23:20.640Z,102049.47
2023-02-19T10:25:58.015Z,102057.22
2023-02-19T10:28:34.196Z,102060.63
2023-02-19T10:31:16.271Z,102073.31
2023-02-19T10:33:52.209Z,102069.75
2023-02-19T10:36:41.403Z,102074.84
2023-02-19T10:39:30.438Z,102073.75
2023-02-19T10:41:57.198Z,102072.94
2023-02-19T10:44:29.178Z,102078.75
2023-02-19T10:46:59.753Z,102076.28
2023-02-19T10:49:31.763Z,102084.81
2023-02-19T10:52:02.998Z,102092.09
2023-02-19T10:54:32.644Z,102095.50
2023-02-19T10:57:30.554Z,102087.72
2023-02-19T11:00:02.343Z,102095.50
2023-02-19T11:02:31.466Z,102097.06
2023-02-19T11:05:25.122Z,102108.25
2023-02-19T11:07:57.319Z,102116.16
2023-02-19T11:10:28.548Z,102124.06
2023-02-19T11:12:59.192Z,102123.63
2023-02-19T11:15:30.348Z,102109.91
2023-02-19T11:18:30.801Z,102109.06
2023-02-19T11:21:01.995Z,102109.78
2023-02-19T11:23:38.330Z,102112.28
2023-02-19T11:26:14.062Z,102118.28
2023-02-19T11:28:41.088Z,102113.78
2023-02-19T11:31:19.981Z,102102.44
2023-02-19T11:33:58.081Z,102094.59
2023-02-19T11:36:30.919Z,102101.47
2023-02-19T11:39:10.773Z,102100.72
2023-02-19T11:41:52.377Z,102093.97
2023-02-19T11:44:40.709Z,102102.13
2023-02-19T11:47:52.192Z,102096.47
2023-02-19T11:50:22.928Z,102094.94
2023-02-19T11:53:28.149Z,102098.34
2023-02-19T11:56:19.072Z,102098.38
2023-02-19T11:59:02.255Z,102095.81
2023-02-19T12:02:02.831Z,102089.84
2023-02-19T12:04:48.226Z,102092.28
2023-02-19T12:07:36.880Z,102092.13
2023-02-19T12:10:28.486Z,102097.84
2023-02-19T12:13:19.680Z,102106.34
2023-02-19T12:15:57.167Z,102120.31
2023-02-19T12:18:38.130Z,102113.66
2023-02-19T12:21:10.622Z,102113.13
2023-02-19T12:23:52.416Z,102119.44
2023-02-19T12:26:30.426Z,102124.84
2023-02-19T12:29:15.165Z,102130.94
2023-02-19T12:32:00.915Z,102125.06
2023-02-19T12:35:06.001Z,102125.06
2023-02-19T12:37:58.556Z,102125.72
2023-02-19T12:40:49.750Z,102110.81
2023-02-19T12:43:22.029Z,102120.97
2023-02-19T12:46:05.415Z,102126.00
2023-02-19T12:48:47.510Z,102124.38
2023-02-19T12:51:43.374Z,102121.56
2023-02-19T12:54:27.253Z,102118.69
2023-02-19T12:57:25.950Z,102122.88
2023-02-19T13:00:08.874Z,102116.94
2023-02-19T13:02:43.464Z,102127.41
2023-02-19T13:05:21.808Z,102123.91
2023-02-19T13:07:54.709Z,102132.66
2023-02-19T13:10:36.842Z,102127.47
2023-02-19T13:13:15.788Z,102130.97
2023-02-19T13:15:46.061Z,102134.38
2023-02-19T13:18:18.837Z,102137.91
2023-02-19T13:20:51.030Z,102137.88
2023-02-19T13:23:58.764Z,102126.63
2023-02-19T13:26:44.569Z,102137.78
2023-02-19T13:29:18.273Z,102126.50
2023-02-19T13:32:25.871Z,102129.19
2023-02-19T13:35:29.640Z,102136.88
2023-02-19T13:38:01.815Z,102142.75
2023-02-19T13:40:39.321Z,102140.88
2023-02-19T13:43:21.098Z,102139.91
2023-02-19T13:46:01.052Z,102141.69
2023-02-19T13:48:32.022Z,102152.16
2023-02-19T13:51:21.668Z,102164.34
2023-02-19T13:53:48.328Z,102159.16
2023-02-19T13:56:30.479Z,102159.22
2023-02-19T13:58:58.470Z,102168.75
2023-02-19T14:01:49.659Z,102178.38
2023-02-19T14:04:32.727Z,102182.13
2023-02-19T14:07:08.587Z,102197.75
2023-02-19T14:09:41.222Z,102189.09
2023-02-19T14:12:07.938Z,102193.56
2023-02-19T14:14:44.341Z,102194.50
2023-02-19T14:17:12.946Z,102204.91
2023-02-19T14:19:42.762Z,102209.38
2023-02-19T14:22:46.959Z,102213.75
2023-02-19T14:25:34.823Z,102211.19
2023-02-19T14:28:12.602Z,102208.59
2023-02-19T14:30:56.387Z,102206.88
2023-02-19T14:33:26.573Z,102209.44
2023-02-19T14:35:58.388Z,102207.75
2023-02-19T14:38:39.386Z,102206.91
2023-02-19T14:41:06.986Z,102212.19
2023-02-19T14:43:41.222Z,102211.28
2023-02-19T14:46:19.748Z,102209.53
2023-02-19T14:48:49.806Z,102218.19
2023-02-19T14:51:38.529Z,102216.41
2023-02-19T14:54:15.814Z,102211.22
2023-02-19T14:56:47.712Z,102214.72
2023-02-19T14:59:14.418Z,102203.50
2023-02-19T15:01:41.052Z,102199.13
2023-02-19T15:04:26.112Z,102198.25
2023-02-19T15:06:57.092Z,102189.44
2023-02-19T15:09:33.149Z,102192.94
2023-02-19T15:12:02.833Z,102185.94
2023-02-19T15:14:30.864Z,102182.44
2023-02-19T15:17:01.438Z,102170.31
2023-02-19T15:19:32.983Z,102155.53
2023-02-19T15:22:00.033Z,102158.97
2023-02-19T15:24:28.308Z,102160.69
2023-02-19T15:26:55.623Z,102145.16
2023-02-19T15:29:27.143Z,102143.53
2023-02-19T15:31:56.922Z,102145.25
2023-02-19T15:34:31.589Z,102144.41
2023-02-19T15:37:06.714Z,102138.34
2023-02-19T15:39:40.143Z,102137.56
2023-02-19T15:42:09.805Z,102133.34
2023-02-19T15:44:42.345Z,102135.09
2023-02-19T15:47:18.630Z,102138.53
2023-02-19T15:50:19.075Z,102138.59
2023-02-19T15:52:48.993Z,102149.88
2023-02-19T15:55:43.777Z,102147.28
2023-02-19T15:58:22.213Z,102149.03
2023-02-19T16:00:52.804Z,102157.69
2023-02-19T16:03:22.286Z,102168.97
2023-02-19T16:06:03.404Z,102170.84
2023-02-19T16:08:30.922Z,102177.75
2023-02-19T16:11:02.761Z,102177.78
2023-02-19T16:13:32.400Z,102182.91
2023-02-19T16:16:19.306Z,102177.78
2023-02-19T16:18:47.661Z,102196.78
2023-02-19T16:21:17.257Z,102204.66
2023-02-19T16:23:46.331Z,102212.38
2023-02-19T16:26:13.301Z,102201.22
2023-02-19T16:28:41.457Z,102207.28
2023-02-19T16:31:13.772Z,102203.94
2023-02-19T16:33:41.744Z,102200.47
2023-02-19T16:36:21.754Z,102199.69
2023-02-19T16:39:10.377Z,102199.69
2023-02-19T16:42:00.129Z,102216.19
2023-02-19T16:44:31.355Z,102222.28
2023-02-19T16:47:03.892Z,102231.78
2023-02-19T16:49:31.068Z,102237.81
2023-02-19T16:52:02.681Z,102241.34
2023-02-19T16:54:30.734Z,102257.78
2023-02-19T16:56:57.353Z,102261.19
2023-02-19T16:59:23.864Z,102268.97
2023-02-19T17:01:50.662Z,102269.81
2023-02-19T17:04:17.330Z,102283.63
2023-02-19T17:06:45.654Z,102288.88
2023-02-19T17:09:12.265Z,102299.25
2023-02-19T17:11:39.719Z,102306.19
2023-02-19T17:14:06.288Z,102297.53
2023-02-19T17:16:40.463Z,102293.22
2023-02-19T17:19:14.771Z,102294.09
2023-02-19T17:21:41.941Z,102296.78
2023-02-19T17:24:08.575Z,102298.50
2023-02-19T17:26:35.147Z,102297.75
2023-02-19T17:29:04.618Z,102296.84
2023-02-19T17:31:31.296Z,102302.94
2023-02-19T17:33:58.971Z,102303.81
2023-02-19T17:36:30.904Z,102293.44
2023-02-19T17:38:59.153Z,102302.06
2023-02-19T17:41:26.074Z,102304.69
2023-02-19T17:43:53.406Z,102307.25
2023-02-19T17:46:26.009Z,102302.97
2023-02-19T17:48:53.844Z,102313.31
2023-02-19T17:51:20.780Z,102308.16
2023-02-19T17:53:47.448Z,102314.19
2023-02-19T17:56:30.442Z,102326.28
2023-02-19T17:58:57.952Z,102332.34
2023-02-19T18:01:25.058Z,102339.31
2023-02-19T18:03:51.977Z,102337.56
2023-02-19T18:06:19.282Z,102342.72
2023-02-19T18:08:53.222Z,102345.31
2023-02-19T18:11:22.220Z,102349.69
2023-02-19T18:13:50.782Z,102350.56
2023-02-19T18:16:17.844Z,102354.91
2023-02-19T18:18:45.204Z,102354.06
2023-02-19T18:21:13.799Z,102351.53
2023-02-19T18:23:40.854Z,102345.50
2023-02-19T18:26:10.363Z,102348.13
2023-02-19T18:28:37.945Z,102349.00
2023-02-19T18:31:04.800Z,102359.34
2023-02-19T18:33:31.554Z,102360.19
2023-02-19T18:35:58.058Z,102353.28
2023-02-19T18:38:24.536Z,102367.13
2023-02-19T18:40:51.101Z,102361.94
2023-02-19T18:43:17.616Z,102361.94
2023-02-19T18:45:45.525Z,102363.66
2023-02-19T18:48:12.340Z,102365.44
2023-02-19T18:50:38.843Z,102367.13
2023-02-19T18:53:05.456Z,102368.81
2023-02-19T18:55:31.991Z,102380.94
2023-02-19T18:57:58.892Z,102381.84
2023-02-19T19:00:26.685Z,102379.22
2023-02-19T19:03:00.145Z,102380.94
2023-02-19T19:05:27.451Z,102375.75
2023-02-19T19:07:56.250Z,102385.19
2023-02-19T19:10:24.045Z,102389.47
2023-02-19T19:12:51.374Z,102385.13
2023-02-19T19:15:18.987Z,102401.53
2023-02-19T19:17:47.079Z,102403.25
2023-02-19T19:20:16.483Z,102397.25
2023-02-19T19:22:43.279Z,102407.66
2023-02-19T19:25:10.092Z,102407.66
2023-02-19T19:27:36.897Z,102396.47
2023-02-19T19:30:05.135Z,102404.22
2023-02-19T19:32:31.767Z,102403.38
2023-02-19T19:35:00.967Z,102405.09
2023-02-19T19:37:29.268Z,102401.63
2023-02-19T19:39:56.466Z,102392.22
2023-02-19T19:42:23.242Z,102392.19
2023-02-19T19:44:50.662Z,102387.00
2023-02-19T19:47:17.388Z,102382.75
2023-02-19T19:49:47.212Z,102381.00
2023-02-19T19:52:14.271Z,102373.25
2023-02-19T19:54:43.074Z,102392.19
2023-02-19T19:57:10.378Z,102393.06
2023-02-19T19:59:39.447Z,102397.34
2023-02-19T20:02:07.674Z,102407.72
2023-02-19T20:04:34.404Z,102411.16
2023-02-19T20:07:00.991Z,102414.59
2023-02-19T20:09:29.188Z,102408.56
2023-02-19T20:11:56.803Z,102417.16
2023-02-19T20:14:25.578Z,102408.53
2023-02-19T20:16:53.347Z,102403.34
2023-02-19T20:19:20.919Z,102408.53
2023-02-19T20:21:52.642Z,102416.31
2023-02-19T20:24:24.896Z,102406.81
2023-02-19T20:26:54.031Z,102411.19
2023-02-19T20:29:20.643Z,102412.94
2023-02-19T20:31:49.306Z,102413.00
2023-02-19T20:34:16.340Z,102413.03
2023-02-19T20:36:44.507Z,102409.56
2023-02-19T20:39:11.651Z,102422.53
2023-02-19T20:41:38.297Z,102417.38
2023-02-19T20:44:06.213Z,102431.16
2023-02-19T20:46:32.893Z,102431.19
2023-02-19T20:48:59.503Z,102434.66
2023-02-19T20:51:26.105Z,102434.66
2023-02-19T20:53:52.689Z,102439.81
2023-02-19T20:56:19.216Z,102444.97
2023-02-19T20:58:45.917Z,102435.50
2023-02-19T21:01:12.512Z,102433.78
2023-02-19T21:03:39.060Z,102433.78
2023-02-19T21:06:05.962Z,102425.19
2023-02-19T21:08:36.521Z,102417.41
2023-02-19T21:11:03.193Z,102420.84
2023-02-19T21:13:30.349Z,102425.19
2023-02-19T21:15:56.938Z,102432.09
2023-02-19T21:18:23.497Z,102420.03
2023-02-19T21:20:49.973Z,102412.28
2023-02-19T21:23:16.510Z,102419.22
2023-02-19T21:25:43.023Z,102427.81
2023-02-19T21:28:10.446Z,102429.56
2023-02-19T21:30:37.059Z,102442.53
2023-02-19T21:33:04.184Z,102443.41
2023-02-19T21:35:30.988Z,102452.03
2023-02-19T21:37:57.504Z,102457.25
2023-02-19T21:40:25.352Z,102457.22
2023-02-19T21:42:51.966Z,102455.50
2023-02-19T21:45:18.539Z,102441.72
2023-02-19T21:47:45.342Z,102437.41
2023-02-19T21:50:12.385Z,102427.06
2023-02-19T21:52:38.878Z,102424.50
2023-02-19T21:55:06.374Z,102416.75
2023-02-19T21:57:33.151Z,102418.44
2023-02-19T22:00:00.306Z,102421.94
2023-02-19T22:02:27.185Z,102421.94
2023-02-19T22:04:54.242Z,102427.09
2023-02-19T22:07:22.286Z,102429.69
2023-02-19T22:09:50.117Z,102434.88
2023-02-19T22:12:18.028Z,102444.34
2023-02-19T22:14:45.527Z,102440.88
2023-02-19T22:17:12.412Z,102441.75
2023-02-19T22:19:39.308Z,102446.06
2023-02-19T22:22:06.115Z,102440.06
2023-02-19T22:24:32.662Z,102434.03
2023-02-19T22:26:59.285Z,102440.06
2023-02-19T22:29:25.856Z,102430.56
2023-02-19T22:31:53.001Z,102437.47
2023-02-19T22:34:19.823Z,102439.19
2023-02-19T22:36:46.936Z,102438.31
2023-02-19T22:39:22.726Z,102442.66
2023-02-19T22:41:49.895Z,102440.91
2023-02-19T22:44:17.040Z,102448.69
2023-02-19T22:47:02.143Z,102447.81
2023-02-19T22:49:28.811Z,102445.25
2023-02-19T22:52:01.317Z,102443.53
2023-02-19T22:54:28.171Z,102447.81
2023-02-19T22:56:55.709Z,102439.22
2023-02-19T22:59:23.095Z,102441.81
2023-02-19T23:01:50.488Z,102443.53
2023-02-19T23:04:17.245Z,102444.41
2023-02-19T23:06:45.796Z,102431.47
2023-02-19T23:09:21.159Z,102435.78
2023-02-19T23:11:50.666Z,102434.03
2023-02-19T23:14:19.280Z,102439.22
2023-02-19T23:16:46.696Z,102438.38
2023-02-19T23:19:15.883Z,102432.31
2023-02-19T23:21:44.663Z,102434.06
2023-02-19T23:24:12.192Z,102430.63
2023-02-19T23:26:51.883Z,102434.91
2023-02-19T23:29:25.305Z,102428.88
2023-02-19T23:31:52.390Z,102431.50
2023-02-19T23:34:19.573Z,102422.88
2023-02-19T23:36:49.195Z,102425.44
2023-02-19T23:39:18.318Z,102416.84
2023-02-19T23:41:55.661Z,102415.13
2023-02-19T23:44:24.520Z,102409.09
2023-02-19T23:46:52.333Z,102416.84
2023-02-19T23:49:19.295Z,102403.06
2023-02-19T23:51:46.539Z,102405.66
2023-02-19T23:54:13.521Z,102397.06
2023-02-19T23:56:40.249Z,102395.31
2023-02-19T23:59:07.201Z,102397.06
